createdAt,value
2017-10-29T00:01:11.882Z,7.60
2017-10-29T00:03:39.321Z,7.60
2017-10-29T00:06:06.773Z,7.60
2017-10-29T00:08:34.603Z,7.50
2017-10-29T00:11:02.825Z,7.40
2017-10-29T00:13:30.256Z,7.30
2017-10-29T00:15:57.710Z,7.50
2017-10-29T00:18:25.147Z,7.50
2017-10-29T00:20:52.665Z,7.40
2017-10-29T00:23:20.090Z,7.50
2017-10-29T00:25:47.545Z,7.50
2017-10-29T00:28:15.030Z,7.60
2017-10-29T00:30:42.470Z,7.50
2017-10-29T00:33:09.909Z,7.50
2017-10-29T00:35:37.376Z,7.50
2017-10-29T00:38:05.657Z,7.60
2017-10-29T00:40:33.102Z,7.50
2017-10-29T00:43:00.561Z,7.60
2017-10-29T00:45:28.021Z,7.70
2017-10-29T00:47:55.457Z,7.60
2017-10-29T00:50:22.933Z,7.50
2017-10-29T00:52:50.379Z,7.60
2017-10-29T00:55:17.833Z,7.60
2017-10-29T00:57:45.296Z,7.60
2017-10-29T01:00:12.736Z,7.50
2017-10-29T01:02:40.204Z,7.60
2017-10-29T01:05:07.638Z,7.60
2017-10-29T01:07:35.121Z,7.60
2017-10-29T01:10:02.591Z,7.60
2017-10-29T01:12:30.022Z,7.40
2017-10-29T01:14:57.490Z,7.50
2017-10-29T01:17:24.937Z,7.60
2017-10-29T01:19:52.394Z,7.60
2017-10-29T01:22:19.837Z,7.60
2017-10-29T01:24:47.318Z,7.50
2017-10-29T01:27:14.767Z,7.50
2017-10-29T01:29:42.205Z,7.40
2017-10-29T01:32:09.675Z,7.50
2017-10-29T01:34:37.118Z,7.50
2017-10-29T01:37:04.571Z,7.50
2017-10-29T01:39:32.142Z,7.50
2017-10-29T01:41:59.580Z,7.50
2017-10-29T01:44:27.017Z,7.60
2017-10-29T01:46:54.457Z,7.60
2017-10-29T01:49:22.661Z,7.50
2017-10-29T01:51:50.113Z,7.50
2017-10-29T01:54:17.589Z,7.50
2017-10-29T01:56:45.148Z,7.40
2017-10-29T01:59:12.594Z,7.40
2017-10-29T02:01:40.035Z,7.40
2017-10-29T02:04:07.521Z,7.40
2017-10-29T02:06:34.953Z,7.40
2017-10-29T02:09:02.429Z,7.30
2017-10-29T02:11:29.861Z,7.40
2017-10-29T02:13:57.419Z,7.30
2017-10-29T02:16:24.853Z,7.40
2017-10-29T02:18:52.358Z,7.40
2017-10-29T02:21:19.798Z,7.40
2017-10-29T02:26:51.563Z,7.40
2017-10-29T02:29:19.020Z,7.50
2017-10-29T02:31:46.500Z,7.50
2017-10-29T02:34:14.776Z,7.50
2017-10-29T02:36:42.988Z,7.50
2017-10-29T02:39:10.475Z,7.50
2017-10-29T02:41:37.983Z,7.50
2017-10-29T02:44:06.176Z,7.50
2017-10-29T02:46:33.608Z,7.50
2017-10-29T02:49:01.109Z,7.50
2017-10-29T02:51:28.537Z,7.50
2017-10-29T02:53:55.976Z,7.60
2017-10-29T02:56:23.422Z,7.50
2017-10-29T02:58:51.663Z,7.60
2017-10-29T03:01:19.137Z,7.50
2017-10-29T03:03:47.351Z,7.60
2017-10-29T03:06:14.780Z,7.50
2017-10-29T03:08:42.290Z,7.60
2017-10-29T03:11:09.729Z,7.60
2017-10-29T03:13:37.178Z,7.70
2017-10-29T03:16:04.725Z,7.70
2017-10-29T03:18:32.272Z,7.70
2017-10-29T03:20:59.714Z,7.80
2017-10-29T03:23:27.947Z,7.80
2017-10-29T03:25:55.398Z,7.70
2017-10-29T03:28:22.829Z,7.80
2017-10-29T03:30:50.282Z,7.90
2017-10-29T03:33:17.709Z,8.00
2017-10-29T03:35:46.042Z,8.00
2017-10-29T03:38:13.495Z,7.90
2017-10-29T03:40:41.053Z,8.10
2017-10-29T03:43:18.749Z,8.20
2017-10-29T03:45:46.300Z,8.30
2017-10-29T03:48:13.738Z,8.30
2017-10-29T03:50:41.177Z,8.40
2017-10-29T03:53:08.634Z,8.40
2017-10-29T03:55:36.073Z,8.60
2017-10-29T03:58:04.285Z,8.70
2017-10-29T04:00:31.729Z,8.60
2017-10-29T04:02:59.165Z,8.80
2017-10-29T04:05:26.660Z,8.90
2017-10-29T04:07:54.117Z,8.90
2017-10-29T04:10:21.594Z,8.90
2017-10-29T04:12:49.034Z,9.00
2017-10-29T04:15:16.588Z,9.10
2017-10-29T04:17:44.028Z,9.10
2017-10-29T04:20:12.293Z,9.10
2017-10-29T04:22:39.725Z,9.20
2017-10-29T04:25:07.328Z,9.30
2017-10-29T04:27:34.769Z,9.30
2017-10-29T04:30:02.297Z,9.40
2017-10-29T04:32:30.512Z,9.40
2017-10-29T04:34:57.974Z,9.30
2017-10-29T04:37:25.542Z,9.40
2017-10-29T04:39:53.097Z,9.50
2017-10-29T04:42:20.602Z,9.50
2017-10-29T04:44:48.042Z,9.60
2017-10-29T04:47:16.251Z,9.60
2017-10-29T04:49:43.685Z,9.60
2017-10-29T04:52:11.183Z,9.70
2017-10-29T04:54:38.617Z,9.70
2017-10-29T04:57:06.093Z,9.70
2017-10-29T04:59:33.544Z,9.80
2017-10-29T05:02:00.993Z,9.70
2017-10-29T05:04:28.437Z,9.80
2017-10-29T05:06:55.917Z,9.80
2017-10-29T05:09:23.785Z,9.80
2017-10-29T05:11:51.349Z,9.90
2017-10-29T05:14:18.893Z,9.90
2017-10-29T05:16:46.332Z,9.90
2017-10-29T05:19:13.789Z,9.90
2017-10-29T05:21:41.241Z,9.90
2017-10-29T05:24:08.665Z,9.90
2017-10-29T05:26:36.873Z,9.90
2017-10-29T05:29:04.322Z,9.90
2017-10-29T05:31:31.752Z,10.00
2017-10-29T05:33:59.262Z,10.00
2017-10-29T05:36:26.692Z,10.00
2017-10-29T05:38:54.165Z,10.00
2017-10-29T05:41:21.605Z,10.00
2017-10-29T05:43:49.049Z,10.00
2017-10-29T05:46:16.533Z,10.10
2017-10-29T05:48:43.986Z,10.10
2017-10-29T05:51:11.450Z,10.00
2017-10-29T05:53:38.896Z,10.00
2017-10-29T05:56:06.345Z,9.90
2017-10-29T05:58:33.785Z,9.90
2017-10-29T06:01:01.273Z,9.80
2017-10-29T06:03:28.929Z,9.90
2017-10-29T06:05:56.380Z,9.80
2017-10-29T06:08:23.824Z,9.80
2017-10-29T06:10:51.267Z,9.80
2017-10-29T06:13:18.707Z,9.70
2017-10-29T06:15:46.212Z,9.70
2017-10-29T06:18:13.651Z,9.60
2017-10-29T06:20:41.090Z,9.70
2017-10-29T06:23:08.533Z,9.70
2017-10-29T06:25:35.987Z,9.70
2017-10-29T06:28:03.559Z,9.70
2017-10-29T06:30:30.989Z,9.70
2017-10-29T06:32:59.194Z,9.80
2017-10-29T06:35:26.652Z,9.80
2017-10-29T06:37:54.072Z,9.80
2017-10-29T06:40:21.573Z,9.80
2017-10-29T06:42:49.114Z,9.90
2017-10-29T06:45:16.684Z,9.90
2017-10-29T06:47:44.154Z,9.90
2017-10-29T06:50:11.709Z,9.90
2017-10-29T06:52:39.265Z,10.00
2017-10-29T06:55:06.824Z,10.10
2017-10-29T06:57:34.281Z,10.10
2017-10-29T07:00:01.734Z,10.20
2017-10-29T07:02:29.173Z,10.30
2017-10-29T07:04:56.646Z,10.20
2017-10-29T07:07:24.177Z,10.20
2017-10-29T07:09:51.609Z,10.20
2017-10-29T07:12:19.108Z,10.30
2017-10-29T07:14:46.593Z,10.30
2017-10-29T07:17:14.133Z,10.40
2017-10-29T07:19:41.627Z,10.40
2017-10-29T07:22:09.862Z,11.00
2017-10-29T07:24:37.292Z,11.00
2017-10-29T07:27:04.866Z,11.00
2017-10-29T07:29:32.365Z,11.00
2017-10-29T07:31:59.810Z,11.10
2017-10-29T07:34:27.265Z,10.90
2017-10-29T07:36:54.801Z,10.90
2017-10-29T07:39:22.242Z,10.60
2017-10-29T07:41:49.705Z,10.50
2017-10-29T07:44:17.189Z,10.50
2017-10-29T07:46:44.721Z,10.50
2017-10-29T07:49:12.162Z,10.50
2017-10-29T07:51:39.607Z,10.40
2017-10-29T07:54:07.081Z,10.50
2017-10-29T07:56:34.537Z,10.50
2017-10-29T07:59:01.996Z,10.50
2017-10-29T08:01:29.457Z,10.50
2017-10-29T08:03:57.013Z,10.50
2017-10-29T08:06:24.457Z,10.50
2017-10-29T08:08:51.917Z,10.50
2017-10-29T08:11:19.361Z,10.40
2017-10-29T08:13:46.805Z,10.50
2017-10-29T08:16:14.285Z,10.50
2017-10-29T08:18:41.737Z,10.50
2017-10-29T08:21:09.197Z,10.50
2017-10-29T08:23:36.646Z,10.50
2017-10-29T08:26:04.086Z,10.60
2017-10-29T08:28:31.565Z,10.60
2017-10-29T08:30:59.125Z,10.60
2017-10-29T08:33:26.568Z,10.60
2017-10-29T08:35:54.053Z,10.50
2017-10-29T08:38:21.617Z,10.60
2017-10-29T08:40:49.077Z,10.60
2017-10-29T08:43:17.310Z,10.70
2017-10-29T08:45:44.749Z,10.60
2017-10-29T08:48:12.298Z,10.70
2017-10-29T08:50:39.805Z,10.60
2017-10-29T08:53:07.377Z,10.60
2017-10-29T08:55:34.904Z,10.50
2017-10-29T08:58:02.437Z,10.60
2017-10-29T09:00:29.905Z,10.50
2017-10-29T09:02:57.400Z,10.60
2017-10-29T09:05:24.905Z,10.60
2017-10-29T09:07:52.369Z,10.70
2017-10-29T09:10:19.814Z,10.60
2017-10-29T09:12:47.248Z,10.60
2017-10-29T09:15:14.696Z,10.60
2017-10-29T09:17:42.925Z,10.60
2017-10-29T09:20:10.379Z,10.60
2017-10-29T09:22:37.837Z,10.70
2017-10-29T09:25:05.401Z,10.80
2017-10-29T09:27:32.952Z,10.70
2017-10-29T09:30:00.659Z,10.70
2017-10-29T09:32:28.163Z,10.80
2017-10-29T09:34:55.645Z,10.70
2017-10-29T09:37:23.096Z,10.70
2017-10-29T09:39:50.653Z,10.80
2017-10-29T09:42:18.212Z,10.80
2017-10-29T09:44:47.180Z,10.80
2017-10-29T09:47:15.049Z,10.80
2017-10-29T09:49:42.505Z,10.80
2017-10-29T09:52:09.961Z,10.80
2017-10-29T09:54:37.393Z,10.70
2017-10-29T09:57:04.847Z,10.70
2017-10-29T09:59:32.280Z,10.60
2017-10-29T10:01:59.784Z,10.50
2017-10-29T10:04:27.287Z,10.40
2017-10-29T10:06:54.697Z,10.40
2017-10-29T10:09:22.144Z,10.40
2017-10-29T10:11:49.601Z,10.40
2017-10-29T10:14:17.085Z,10.50
2017-10-29T10:16:44.538Z,10.40
2017-10-29T10:19:12.049Z,10.50
2017-10-29T10:21:39.493Z,10.40
2017-10-29T10:24:07.062Z,10.50
2017-10-29T10:26:34.546Z,10.40
2017-10-29T10:29:02.070Z,10.30
2017-10-29T10:31:29.605Z,10.20
2017-10-29T10:33:57.863Z,10.00
2017-10-29T10:36:25.503Z,10.00
2017-10-29T10:38:53.098Z,10.00
2017-10-29T10:41:21.358Z,10.00
2017-10-29T10:43:48.877Z,9.90
2017-10-29T10:46:16.629Z,10.00
2017-10-29T10:48:44.150Z,10.00
2017-10-29T10:51:12.502Z,10.00
2017-10-29T10:53:40.049Z,10.00
2017-10-29T10:56:07.586Z,10.00
2017-10-29T10:58:35.105Z,9.90
2017-10-29T11:01:02.580Z,9.80
2017-10-29T11:03:30.104Z,9.80
2017-10-29T11:05:57.581Z,9.80
2017-10-29T11:08:25.110Z,9.70
2017-10-29T11:10:52.587Z,9.80
2017-10-29T11:13:20.112Z,9.80
2017-10-29T11:15:48.423Z,9.60
2017-10-29T11:18:16.023Z,9.60
2017-10-29T11:20:43.518Z,9.60
2017-10-29T11:23:11.772Z,9.50
2017-10-29T11:25:39.385Z,9.40
2017-10-29T11:28:06.873Z,9.60
2017-10-29T11:30:34.726Z,9.70
2017-10-29T11:33:02.172Z,9.70
2017-10-29T11:35:29.597Z,9.60
2017-10-29T11:37:57.034Z,9.30
2017-10-29T11:40:25.243Z,9.10
2017-10-29T11:42:52.685Z,9.00
2017-10-29T11:45:20.133Z,8.80
2017-10-29T11:47:47.601Z,8.70
2017-10-29T11:50:15.046Z,8.80
2017-10-29T11:52:42.500Z,8.70
2017-10-29T11:55:10.079Z,8.70
2017-10-29T11:57:37.562Z,8.70
2017-10-29T12:00:05.002Z,8.80
2017-10-29T12:02:32.550Z,8.80
2017-10-29T12:04:59.991Z,8.90
2017-10-29T12:07:27.534Z,8.90
2017-10-29T12:09:55.117Z,9.00
2017-10-29T12:12:22.547Z,9.00
2017-10-29T12:14:50.762Z,9.00
2017-10-29T12:17:18.209Z,8.90
2017-10-29T12:19:45.670Z,8.90
2017-10-29T12:22:13.138Z,8.80
2017-10-29T12:24:41.265Z,8.80
2017-10-29T12:27:08.793Z,8.80
2017-10-29T12:29:37.053Z,8.90
2017-10-29T12:32:05.314Z,8.90
2017-10-29T12:34:33.191Z,8.80
2017-10-29T12:37:00.732Z,8.80
2017-10-29T12:39:28.169Z,8.70
2017-10-29T12:41:55.616Z,8.70
2017-10-29T12:44:23.049Z,8.90
2017-10-29T12:46:50.603Z,8.80
2017-10-29T12:49:18.861Z,8.40
2017-10-29T12:51:46.310Z,8.30
2017-10-29T12:54:13.747Z,8.20
2017-10-29T12:56:41.194Z,8.30
2017-10-29T12:59:08.634Z,8.30
2017-10-29T13:01:36.093Z,8.20
2017-10-29T13:04:03.529Z,8.30
2017-10-29T13:06:31.023Z,8.30
2017-10-29T13:08:58.468Z,8.30
2017-10-29T13:11:25.925Z,8.40
2017-10-29T13:13:53.512Z,8.50
2017-10-29T13:16:20.940Z,8.50
2017-10-29T13:18:48.392Z,8.60
2017-10-29T13:21:15.869Z,8.70
2017-10-29T13:23:43.305Z,8.80
2017-10-29T13:26:10.864Z,8.80
2017-10-29T13:28:38.330Z,8.90
2017-10-29T13:31:05.810Z,8.90
2017-10-29T13:33:33.248Z,8.90
2017-10-29T13:36:00.701Z,8.90
2017-10-29T13:38:28.136Z,8.90
2017-10-29T13:40:55.609Z,9.00
2017-10-29T13:43:23.068Z,9.00
2017-10-29T13:45:50.504Z,9.00
2017-10-29T13:48:17.963Z,9.00
2017-10-29T13:50:45.400Z,9.00
2017-10-29T13:53:12.873Z,9.00
2017-10-29T13:55:40.325Z,9.20
2017-10-29T13:58:07.761Z,9.20
2017-10-29T14:00:35.246Z,9.20
2017-10-29T14:03:02.801Z,9.30
2017-10-29T14:05:30.240Z,9.20
2017-10-29T14:07:57.714Z,9.30
2017-10-29T14:10:25.157Z,9.30
2017-10-29T14:12:52.643Z,9.20
2017-10-29T14:15:20.080Z,9.20
2017-10-29T14:17:47.511Z,9.30
2017-10-29T14:20:14.989Z,9.40
2017-10-29T14:22:42.448Z,9.30
2017-10-29T14:25:09.890Z,9.20
2017-10-29T14:27:37.431Z,9.10
2017-10-29T14:30:04.861Z,9.20
2017-10-29T14:32:33.073Z,9.10
2017-10-29T14:35:00.516Z,9.00
2017-10-29T14:37:27.993Z,9.10
2017-10-29T14:39:55.527Z,9.20
2017-10-29T14:42:22.968Z,9.30
2017-10-29T14:44:51.177Z,9.40
2017-10-29T14:47:18.653Z,9.30
2017-10-29T14:49:46.198Z,9.40
2017-10-29T14:52:13.637Z,9.30
2017-10-29T14:54:41.069Z,9.30
2017-10-29T14:57:08.538Z,9.20
2017-10-29T14:59:35.957Z,9.10
2017-10-29T15:02:04.206Z,9.00
2017-10-29T15:04:31.645Z,8.90
2017-10-29T15:06:59.198Z,8.90
2017-10-29T15:09:26.632Z,8.80
2017-10-29T15:11:54.068Z,8.80
2017-10-29T15:14:21.517Z,8.70
2017-10-29T15:16:49.817Z,8.70
2017-10-29T15:19:17.317Z,8.60
2017-10-29T15:21:44.831Z,8.70
2017-10-29T15:24:12.276Z,8.80
2017-10-29T15:26:39.722Z,8.70
2017-10-29T15:29:07.162Z,8.50
2017-10-29T15:31:35.452Z,8.50
2017-10-29T15:34:02.897Z,8.50
2017-10-29T15:36:31.225Z,8.50
2017-10-29T15:38:58.786Z,8.40
2017-10-29T15:41:26.241Z,8.40
2017-10-29T15:43:53.798Z,8.40
2017-10-29T15:46:21.249Z,8.30
2017-10-29T15:48:48.729Z,8.40
2017-10-29T15:51:16.432Z,8.30
2017-10-29T15:53:44.845Z,8.40
2017-10-29T15:56:12.404Z,8.40
2017-10-29T15:58:40.020Z,8.30
2017-10-29T16:01:07.469Z,8.20
2017-10-29T16:03:35.682Z,8.20
2017-10-29T16:06:03.124Z,8.10
2017-10-29T16:08:30.680Z,8.20
2017-10-29T16:10:58.145Z,8.20
2017-10-29T16:13:26.585Z,8.00
2017-10-29T16:15:54.804Z,8.00
2017-10-29T16:18:22.364Z,7.90
2017-10-29T16:20:49.857Z,8.00
2017-10-29T16:23:17.409Z,8.00
2017-10-29T16:25:44.946Z,7.90
2017-10-29T16:28:12.905Z,7.80
2017-10-29T16:30:40.365Z,7.70
2017-10-29T16:33:07.920Z,7.80
2017-10-29T16:35:35.617Z,7.70
2017-10-29T16:38:03.834Z,7.70
2017-10-29T16:40:31.302Z,7.70
2017-10-29T16:42:58.761Z,7.60
2017-10-29T16:45:26.198Z,7.70
2017-10-29T16:47:53.674Z,7.60
2017-10-29T16:50:21.237Z,7.50
2017-10-29T16:52:48.732Z,7.50
2017-10-29T16:55:16.166Z,7.40
2017-10-29T16:57:43.678Z,7.40
2017-10-29T17:00:11.162Z,7.50
2017-10-29T17:02:38.610Z,7.30
2017-10-29T17:05:06.054Z,7.30
2017-10-29T17:07:33.516Z,7.30
2017-10-29T17:10:00.976Z,7.20
2017-10-29T17:12:28.412Z,7.10
2017-10-29T17:14:55.907Z,7.10
2017-10-29T17:17:24.160Z,7.10
2017-10-29T17:19:51.646Z,7.00
2017-10-29T17:22:20.177Z,7.10
2017-10-29T17:24:47.660Z,7.10
2017-10-29T17:27:15.241Z,7.30
2017-10-29T17:29:42.789Z,7.20
2017-10-29T17:32:10.283Z,7.10
2017-10-29T17:34:38.523Z,7.00
2017-10-29T17:37:05.953Z,7.00
2017-10-29T17:39:33.395Z,7.00
2017-10-29T17:42:00.873Z,7.00
2017-10-29T17:44:28.313Z,7.00
2017-10-29T17:46:55.769Z,6.90
2017-10-29T17:49:23.219Z,6.90
2017-10-29T17:51:50.690Z,6.90
2017-10-29T17:54:18.133Z,7.00
2017-10-29T17:56:46.416Z,7.10
2017-10-29T17:59:13.857Z,7.00
2017-10-29T18:01:41.337Z,7.10
2017-10-29T18:04:08.776Z,7.00
2017-10-29T18:06:36.259Z,6.90
2017-10-29T18:09:03.737Z,6.90
2017-10-29T18:11:31.951Z,6.80
2017-10-29T18:13:59.390Z,6.80
2017-10-29T18:16:26.841Z,6.90
2017-10-29T18:18:54.353Z,6.90
2017-10-29T18:21:21.821Z,6.90
2017-10-29T18:23:49.260Z,6.80
2017-10-29T18:26:16.832Z,6.80
2017-10-29T18:28:44.276Z,6.70
2017-10-29T18:31:11.779Z,6.60
2017-10-29T18:33:40.210Z,6.60
2017-10-29T18:36:08.617Z,6.70
2017-10-29T18:38:36.829Z,6.60
2017-10-29T18:41:04.312Z,6.60
2017-10-29T18:43:31.865Z,6.70
2017-10-29T18:46:00.125Z,6.70
2017-10-29T18:48:27.573Z,6.60
2017-10-29T18:50:55.016Z,6.60
2017-10-29T18:53:22.457Z,6.60
2017-10-29T18:55:49.950Z,6.70
2017-10-29T18:58:17.393Z,6.70
2017-10-29T19:00:44.894Z,6.70
2017-10-29T19:03:12.362Z,6.60
2017-10-29T19:05:40.565Z,6.60
2017-10-29T19:08:08.216Z,6.60
2017-10-29T19:10:35.729Z,6.70
2017-10-29T19:13:03.170Z,6.70
2017-10-29T19:15:30.627Z,6.70
2017-10-29T19:17:58.181Z,6.70
2017-10-29T19:20:25.715Z,6.60
2017-10-29T19:22:53.197Z,6.60
2017-10-29T19:25:20.632Z,6.60
2017-10-29T19:27:48.165Z,6.50
2017-10-29T19:30:15.651Z,6.50
2017-10-29T19:32:43.176Z,6.60
2017-10-29T19:35:10.681Z,6.60
2017-10-29T19:37:38.149Z,6.70
2017-10-29T19:40:05.770Z,6.60
2017-10-29T19:42:33.223Z,6.50
2017-10-29T19:45:00.772Z,6.50
2017-10-29T19:47:28.222Z,6.40
2017-10-29T19:49:55.692Z,6.40
2017-10-29T19:52:23.125Z,6.40
2017-10-29T19:54:50.576Z,6.40
2017-10-29T19:57:18.840Z,6.50
2017-10-29T19:59:47.186Z,6.50
2017-10-29T20:02:14.737Z,6.40
2017-10-29T20:04:42.180Z,6.50
2017-10-29T20:07:09.634Z,6.50
2017-10-29T20:09:37.070Z,6.50
2017-10-29T20:12:04.570Z,6.50
2017-10-29T20:14:32.021Z,6.40
2017-10-29T20:16:59.577Z,6.40
2017-10-29T20:19:27.050Z,6.40
2017-10-29T20:21:54.584Z,6.40
2017-10-29T20:24:22.038Z,6.20
2017-10-29T20:26:49.492Z,6.40
2017-10-29T20:29:16.977Z,6.40
2017-10-29T20:31:44.461Z,6.40
2017-10-29T20:34:12.701Z,6.40
2017-10-29T20:36:40.219Z,6.30
2017-10-29T20:39:07.649Z,6.40
2017-10-29T20:41:35.161Z,6.30
2017-10-29T20:44:02.825Z,6.30
2017-10-29T20:46:30.268Z,6.40
2017-10-29T20:48:57.729Z,6.30
2017-10-29T20:51:25.300Z,6.30
2017-10-29T20:53:54.093Z,6.20
2017-10-29T20:56:21.553Z,6.10
2017-10-29T20:58:49.085Z,6.10
2017-10-29T21:01:16.537Z,6.10
2017-10-29T21:03:43.987Z,6.10
2017-10-29T21:06:11.550Z,6.10
2017-10-29T21:08:39.009Z,6.10
2017-10-29T21:11:06.581Z,6.00
2017-10-29T21:13:34.038Z,6.10
2017-10-29T21:16:01.582Z,6.10
2017-10-29T21:18:29.155Z,6.10
2017-10-29T21:20:56.713Z,6.10
2017-10-29T21:23:24.165Z,6.10
2017-10-29T21:25:51.694Z,6.10
2017-10-29T21:28:19.149Z,6.00
2017-10-29T21:30:46.638Z,6.00
2017-10-29T21:33:14.080Z,6.10
2017-10-29T21:35:41.520Z,6.10
2017-10-29T21:38:08.970Z,6.10
2017-10-29T21:40:36.410Z,6.10
2017-10-29T21:43:04.757Z,6.10
2017-10-29T21:45:32.965Z,6.10
2017-10-29T21:48:00.409Z,6.00
2017-10-29T21:50:27.889Z,6.00
2017-10-29T21:52:55.336Z,5.90
2017-10-29T21:55:22.778Z,5.90
2017-10-29T21:57:50.257Z,5.80
2017-10-29T22:00:17.701Z,5.60
2017-10-29T22:02:45.168Z,5.40
2017-10-29T22:05:12.612Z,5.20
2017-10-29T22:07:40.081Z,5.20
2017-10-29T22:10:07.528Z,5.20
2017-10-29T22:12:34.977Z,5.20
2017-10-29T22:15:02.443Z,5.10
2017-10-29T22:17:30.117Z,5.20
2017-10-29T22:19:57.667Z,5.20
2017-10-29T22:22:25.105Z,5.20
2017-10-29T22:24:52.557Z,5.20
2017-10-29T22:27:20.017Z,5.20
2017-10-29T22:29:47.490Z,5.20
2017-10-29T22:32:14.938Z,5.20
2017-10-29T22:34:42.394Z,5.20
2017-10-29T22:37:09.861Z,5.20
2017-10-29T22:39:37.325Z,5.20
2017-10-29T22:42:04.860Z,5.30
2017-10-29T22:44:32.329Z,5.30
2017-10-29T22:46:59.761Z,5.40
2017-10-29T22:49:27.209Z,5.40
2017-10-29T22:51:54.642Z,5.50
2017-10-29T22:54:22.146Z,5.50
2017-10-29T22:56:49.614Z,5.50
2017-10-29T22:59:17.156Z,5.60
2017-10-29T23:01:44.622Z,5.40
2017-10-29T23:04:12.061Z,5.20
2017-10-29T23:06:47.310Z,5.20
2017-10-29T23:09:22.567Z,5.30
2017-10-29T23:11:50.015Z,5.30
2017-10-29T23:14:17.468Z,5.20
2017-10-29T23:16:45.621Z,5.20
2017-10-29T23:19:13.068Z,5.30
2017-10-29T23:21:40.508Z,5.20
2017-10-29T23:24:08.219Z,5.70
2017-10-29T23:26:36.650Z,5.60
2017-10-29T23:29:04.174Z,5.50
2017-10-29T23:31:32.378Z,5.20
2017-10-29T23:33:59.821Z,5.10
2017-10-29T23:36:27.266Z,5.10
2017-10-29T23:38:55.466Z,5.00
2017-10-29T23:41:22.971Z,4.90
2017-10-29T23:43:50.446Z,5.00
2017-10-29T23:46:18.750Z,4.90
2017-10-29T23:48:46.317Z,4.90
2017-10-29T23:51:13.748Z,4.90
2017-10-29T23:53:41.269Z,4.80
2017-10-29T23:56:08.708Z,4.80
2017-10-29T23:58:36.232Z,4.90
